Time;durP1;ratioP1;P1;durP2;ratioP2;P2;SDS_P1;SDS_P2;PMS_P1;PMS_P2;Temp;Humidity;BMP_temperature;BMP_pressure;BME280_temperature;BME280_humidity;BME280_pressure;Samples;Min_cycle;Max_cycle;Signal;HPM_P1;HPM_P2
2023/05/24 00:00:15;;;;;;;18.80;14.60;;;;;;;15.87;76.60;100082.92;130076;1275;114674;-62
2023/05/24 00:03:38;;;;;;;20.40;15.20;;;;;;;15.84;76.80;100087.25;130043;1253;130083;-63
2023/05/24 00:06:41;;;;;;;23.00;14.90;;;;;;;15.79;76.93;100091.34;130080;1256;114816;-63
2023/05/24 00:09:43;;;;;;;18.20;13.90;;;;;;;15.75;76.75;100093.66;130049;1252;114716;-62
2023/05/24 00:12:45;;;;;;;16.20;14.20;;;;;;;15.69;76.98;100100.58;130130;1252;115068;-62
2023/05/24 00:15:47;;;;;;;18.10;14.60;;;;;;;15.62;77.03;100105.91;130174;1254;114802;-62
2023/05/24 00:18:51;;;;;;;17.20;13.50;;;;;;;15.55;77.31;100111.17;130123;1256;114683;-62
2023/05/24 00:21:54;;;;;;;19.70;13.50;;;;;;;15.48;77.21;100113.61;130245;1255;115484;-62
2023/05/24 00:24:56;;;;;;;14.60;12.80;;;;;;;15.42;77.24;100113.54;130257;1257;114773;-62
2023/05/24 00:27:58;;;;;;;19.80;14.10;;;;;;;15.34;77.32;100116.40;130349;1252;114777;-62
2023/05/24 00:31:01;;;;;;;16.40;14.40;;;;;;;15.27;77.44;100112.94;130196;1253;114689;-62
2023/05/24 00:34:03;;;;;;;19.40;14.80;;;;;;;15.23;77.67;100113.12;129962;1260;114917;-62
2023/05/24 00:37:06;;;;;;;20.30;15.80;;;;;;;15.16;77.73;100117.02;130026;1257;114767;-62
2023/05/24 00:40:08;;;;;;;22.20;16.00;;;;;;;15.07;77.70;100112.27;130176;1256;114757;-62
2023/05/24 00:43:11;;;;;;;23.00;16.20;;;;;;;14.98;77.76;100117.88;130215;1257;115213;-61
2023/05/24 00:46:16;;;;;;;18.40;16.40;;;;;;;14.90;78.03;100118.62;129826;1275;115108;-62
2023/05/24 00:49:18;;;;;;;24.10;17.30;;;;;;;14.84;78.18;100122.30;130059;1254;114775;-62
2023/05/24 00:52:20;;;;;;;28.40;17.70;;;;;;;14.76;78.01;100126.80;130074;1257;114716;-63
2023/05/24 00:55:23;;;;;;;20.70;16.90;;;;;;;14.72;78.20;100130.70;130319;1257;114736;-62
2023/05/24 00:58:29;;;;;;;21.20;17.60;;;;;;;14.67;78.09;100132.84;130395;1257;114784;-63
2023/05/24 01:01:32;;;;;;;26.20;19.30;;;;;;;14.61;78.22;100136.48;130228;1275;128914;-62
2023/05/24 01:04:34;;;;;;;23.70;19.30;;;;;;;14.57;78.41;100142.30;130201;1256;114711;-64
2023/05/24 01:07:55;;;;;;;26.80;20.60;;;;;;;14.54;78.56;100138.04;130200;1275;114801;-62
2023/05/24 01:11:03;;;;;;;25.50;20.00;;;;;;;14.51;78.63;100139.10;130338;1256;114706;-62
2023/05/24 01:14:26;;;;;;;24.40;18.90;;;;;;;14.48;78.66;100144.71;130168;1257;114772;-64
2023/05/24 01:18:04;;;;;;;22.20;16.30;;;;;;;14.42;78.55;100148.68;129883;1275;128373;-64
2023/05/24 01:21:47;;;;;;;8.10;6.80;;;;;;;14.37;78.66;100153.36;130132;1257;115190;-63
2023/05/24 01:25:06;;;;;;;2.60;2.40;;;;;;;14.28;78.73;100153.79;130196;1267;114677;-62
2023/05/24 01:28:10;;;;;;;1.90;1.80;;;;;;;14.20;78.65;100155.78;130191;1256;114943;-62
2023/05/24 01:31:13;;;;;;;1.90;1.40;;;;;;;14.16;78.67;100158.22;130213;1275;115183;-62
2023/05/24 01:34:15;;;;;;;1.30;1.30;;;;;;;14.09;78.58;100159.50;129838;1254;127960;-62
2023/05/24 01:37:18;;;;;;;1.10;1.10;;;;;;;14.02;78.63;100166.49;130057;1259;114686;-63
2023/05/24 01:40:20;;;;;;;2.90;1.10;;;;;;;13.94;78.62;100171.27;130184;1257;114856;-63
2023/05/24 01:43:51;;;;;;;1.30;1.20;;;;;;;13.89;78.77;100176.45;130241;1254;114767;-62
2023/05/24 01:47:03;;;;;;;1.80;1.10;;;;;;;13.81;78.75;100176.44;130059;1257;114749;-63
2023/05/24 01:50:24;;;;;;;2.50;1.80;;;;;;;13.75;78.80;100179.48;130162;1258;114709;-63
2023/05/24 01:53:33;;;;;;;1.40;1.30;;;;;;;13.69;78.90;100187.79;130009;1275;128385;-62
2023/05/24 01:56:38;;;;;;;2.10;1.70;;;;;;;13.64;79.05;100186.34;129855;1275;115147;-64
2023/05/24 01:59:42;;;;;;;3.30;2.50;;;;;;;13.58;79.05;100190.31;130043;1256;115196;-63
2023/05/24 02:02:44;;;;;;;2.70;2.40;;;;;;;13.54;79.23;100195.63;129961;1258;114741;-63
2023/05/24 02:05:48;;;;;;;2.90;2.60;;;;;;;13.48;79.30;100199.34;130003;1254;114850;-63
2023/05/24 02:08:52;;;;;;;1.80;1.70;;;;;;;13.42;79.21;100204.60;130140;1258;115417;-63
2023/05/24 02:11:54;;;;;;;3.00;1.70;;;;;;;13.34;79.19;100210.95;130169;1256;115143;-63
2023/05/24 02:14:57;;;;;;;4.00;2.50;;;;;;;13.28;79.12;100213.17;130133;1257;114789;-63
2023/05/24 02:18:00;;;;;;;8.10;3.50;;;;;;;13.16;78.75;100217.08;130284;1253;114674;-64
2023/05/24 02:21:02;;;;;;;6.60;3.20;;;;;;;13.03;78.63;100223.30;128507;1256;2524469;-63
2023/05/24 02:24:06;;;;;;;6.00;3.30;;;;;;;12.92;78.71;100230.94;130220;1253;114782;-63
2023/05/24 02:27:09;;;;;;;6.70;3.50;;;;;;;12.77;78.48;100237.02;130019;1254;126878;-63
2023/05/24 02:30:12;;;;;;;4.90;2.80;;;;;;;12.64;78.57;100233.36;130137;1258;115519;-62
2023/05/24 02:33:15;;;;;;;6.60;3.40;;;;;;;12.52;78.54;100237.08;130149;1253;114764;-62
2023/05/24 02:36:17;;;;;;;8.10;3.10;;;;;;;12.42;78.57;100240.34;130210;1256;114776;-62
2023/05/24 02:39:19;;;;;;;9.70;3.30;;;;;;;12.36;79.05;100246.41;130191;1256;114766;-62
2023/05/24 02:42:22;;;;;;;7.20;2.90;;;;;;;12.28;79.07;100245.98;130122;1256;114764;-63
2023/05/24 02:45:24;;;;;;;5.60;2.90;;;;;;;12.21;79.36;100255.84;130027;1256;114761;-62
2023/05/24 02:48:26;;;;;;;5.60;2.80;;;;;;;12.14;79.18;100258.23;129900;1258;114919;-62
2023/05/24 02:51:29;;;;;;;4.10;2.90;;;;;;;12.05;78.98;100258.03;130210;1253;114821;-62
2023/05/24 02:54:31;;;;;;;5.10;2.30;;;;;;;11.95;78.86;100260.70;130194;1256;115072;-62
2023/05/24 02:57:34;;;;;;;3.50;2.20;;;;;;;11.86;79.02;100267.27;130185;1256;114751;-62
2023/05/24 03:00:37;;;;;;;6.70;2.50;;;;;;;11.77;78.76;100274.02;130083;1275;115071;-63
2023/05/24 03:03:40;;;;;;;4.10;2.20;;;;;;;11.71;78.99;100277.41;130133;1252;115229;-63
2023/05/24 03:06:42;;;;;;;7.80;2.30;;;;;;;11.65;79.03;100280.23;130169;1254;114824;-62
2023/05/24 03:09:44;;;;;;;5.80;2.90;;;;;;;11.60;79.15;100288.39;129988;1275;115387;-64
2023/05/24 03:12:46;;;;;;;6.80;3.20;;;;;;;11.54;79.12;100293.88;130115;1255;115129;-63
2023/05/24 03:15:49;;;;;;;5.60;2.90;;;;;;;11.50;79.17;100299.95;130110;1256;114801;-64
2023/05/24 03:18:54;;;;;;;5.40;2.40;;;;;;;11.47;79.23;100304.41;130090;1257;114703;-63
2023/05/24 03:21:56;;;;;;;5.60;3.30;;;;;;;11.46;79.33;100309.33;130067;1274;115301;-63
2023/05/24 03:24:58;;;;;;;3.80;2.40;;;;;;;11.47;79.60;100308.56;130210;1275;114777;-64
2023/05/24 03:28:04;;;;;;;5.60;3.10;;;;;;;11.45;79.17;100308.47;130217;1275;114702;-65
2023/05/24 03:31:06;;;;;;;5.00;2.50;;;;;;;11.44;79.69;100307.64;130260;1275;114728;-65
2023/05/24 03:34:08;;;;;;;4.10;2.30;;;;;;;11.43;79.23;100308.94;130143;1255;114737;-63
2023/05/24 03:37:11;;;;;;;7.50;2.60;;;;;;;11.41;79.16;100307.79;130147;1253;114708;-64
2023/05/24 03:40:13;;;;;;;4.40;2.50;;;;;;;11.37;79.06;100305.50;130214;1258;114790;-63
2023/05/24 03:43:16;;;;;;;5.90;2.90;;;;;;;11.35;79.50;100301.50;130150;1269;127744;-63
2023/05/24 03:46:18;;;;;;;4.20;3.10;;;;;;;11.34;79.78;100300.48;130139;1269;114636;-63
2023/05/24 03:49:21;;;;;;;3.60;3.30;;;;;;;11.32;79.64;100301.48;130182;1270;114765;-64
2023/05/24 03:52:24;;;;;;;5.60;4.20;;;;;;;11.32;79.71;100301.67;130161;1268;115009;-64
2023/05/24 03:55:26;;;;;;;7.10;3.70;;;;;;;11.30;79.47;100302.27;130189;1253;114770;-64
2023/05/24 03:58:28;;;;;;;6.50;3.50;;;;;;;11.28;79.54;100297.95;130130;1256;114706;-63
2023/05/24 04:01:30;;;;;;;5.10;3.40;;;;;;;11.24;79.89;100304.75;130192;1256;114699;-63
2023/05/24 04:04:32;;;;;;;7.10;3.90;;;;;;;11.22;79.40;100310.02;129985;1275;128806;-63
2023/05/24 04:07:36;;;;;;;5.50;3.30;;;;;;;11.20;79.45;100315.83;130168;1275;114702;-63
2023/05/24 04:10:38;;;;;;;7.20;3.60;;;;;;;11.20;79.42;100317.29;130031;1257;114789;-63
2023/05/24 04:13:40;;;;;;;5.30;3.80;;;;;;;11.19;79.34;100319.66;130068;1257;115149;-63
2023/05/24 04:16:43;;;;;;;8.10;3.90;;;;;;;11.18;79.65;100323.63;130199;1257;114726;-64
2023/05/24 04:19:46;;;;;;;6.10;3.90;;;;;;;11.17;79.34;100332.63;130023;1253;115513;-64
2023/05/24 04:22:48;;;;;;;7.30;4.10;;;;;;;11.17;79.52;100336.55;130199;1257;114777;-63
2023/05/24 04:25:51;;;;;;;4.20;3.80;;;;;;;11.16;79.60;100342.48;130250;1253;114792;-64
2023/05/24 04:28:53;;;;;;;8.30;4.20;;;;;;;11.15;79.67;100342.58;130329;1253;114849;-64
2023/05/24 04:31:55;;;;;;;6.50;3.90;;;;;;;11.15;79.63;100350.82;130224;1254;114763;-64
2023/05/24 04:34:58;;;;;;;5.20;3.60;;;;;;;11.16;79.68;100355.41;130125;1253;114698;-63
2023/05/24 04:38:00;;;;;;;6.80;4.10;;;;;;;11.16;79.55;100358.59;130079;1257;114697;-63
2023/05/24 04:41:03;;;;;;;6.20;4.10;;;;;;;11.17;79.69;100356.21;130212;1254;114698;-63
2023/05/24 04:44:06;;;;;;;6.80;4.60;;;;;;;11.20;79.79;100353.92;130006;1256;127539;-64
2023/05/24 04:47:09;;;;;;;7.30;4.80;;;;;;;11.22;79.88;100355.09;130376;1254;114748;-64
2023/05/24 04:50:15;;;;;;;7.00;4.60;;;;;;;11.24;79.93;100353.02;130322;1256;114796;-63
2023/05/24 04:53:21;;;;;;;4.60;4.20;;;;;;;11.27;79.97;100354.80;129960;1255;114862;-63
2023/05/24 04:56:23;;;;;;;7.50;4.70;;;;;;;11.32;79.74;100357.23;129838;1257;114792;-62
2023/05/24 04:59:25;;;;;;;7.00;4.70;;;;;;;11.36;79.85;100356.88;130229;1253;114773;-62
2023/05/24 05:02:27;;;;;;;4.50;4.10;;;;;;;11.41;79.76;100360.93;130168;1253;114678;-63
2023/05/24 05:05:30;;;;;;;7.40;4.50;;;;;;;11.44;79.73;100360.02;130324;1257;115167;-63
2023/05/24 05:08:32;;;;;;;8.20;4.30;;;;;;;11.47;79.93;100361.65;130148;1253;114699;-63
2023/05/24 05:11:35;;;;;;;8.10;4.60;;;;;;;11.47;79.58;100367.02;130310;1266;115026;-63
2023/05/24 05:14:38;;;;;;;7.80;4.60;;;;;;;11.47;79.32;100369.71;130296;1268;114779;-63
2023/05/24 05:17:40;;;;;;;7.60;4.90;;;;;;;11.49;79.33;100371.58;130029;1275;114679;-63
2023/05/24 05:20:42;;;;;;;8.60;5.00;;;;;;;11.52;79.62;100369.98;129902;1274;114781;-63
2023/05/24 05:23:45;;;;;;;9.80;5.60;;;;;;;11.57;79.51;100377.96;130024;1275;114719;-63
2023/05/24 05:26:47;;;;;;;8.50;5.60;;;;;;;11.63;79.19;100388.02;130131;1251;114723;-64
2023/05/24 05:29:49;;;;;;;9.60;5.80;;;;;;;11.65;79.32;100396.89;130025;1256;114802;-63
2023/05/24 05:32:52;;;;;;;15.20;6.30;;;;;;;11.66;79.33;100401.80;130149;1253;114720;-63
2023/05/24 05:35:54;;;;;;;10.10;6.50;;;;;;;11.69;79.33;100405.41;130013;1253;114735;-63
2023/05/24 05:38:57;;;;;;;11.50;5.80;;;;;;;11.69;79.01;100409.36;130072;1253;114923;-62
2023/05/24 05:42:01;;;;;;;8.90;5.80;;;;;;;11.70;78.87;100416.61;129913;1275;128981;-63
2023/05/24 05:45:04;;;;;;;12.10;5.20;;;;;;;11.70;78.58;100416.96;130266;1253;115314;-62
2023/05/24 05:48:06;;;;;;;12.90;5.70;;;;;;;11.70;78.72;100425.02;130221;1252;114716;-62
2023/05/24 05:51:08;;;;;;;10.80;5.90;;;;;;;11.70;78.05;100428.08;130182;1253;114780;-62
2023/05/24 05:54:14;;;;;;;14.30;6.00;;;;;;;11.71;78.20;100426.06;130055;1254;114704;-62
2023/05/24 05:57:18;;;;;;;14.90;5.60;;;;;;;11.71;78.40;100422.65;130063;1271;114797;-62
2023/05/24 06:00:22;;;;;;;14.30;6.20;;;;;;;11.72;78.32;100423.52;130058;1269;129599;-63
2023/05/24 06:03:24;;;;;;;12.30;5.40;;;;;;;11.74;78.34;100424.64;129898;1260;115210;-62
2023/05/24 06:06:26;;;;;;;10.90;4.60;;;;;;;11.78;78.06;100429.64;130014;1252;114716;-62
2023/05/24 06:09:29;;;;;;;13.20;4.70;;;;;;;11.81;77.64;100430.36;129975;1257;114777;-62
2023/05/24 06:12:31;;;;;;;13.80;5.00;;;;;;;11.86;77.78;100429.55;130158;1251;114806;-62
2023/05/24 06:15:34;;;;;;;10.90;4.60;;;;;;;11.97;77.77;100432.21;130176;1274;114686;-62
2023/05/24 06:18:36;;;;;;;15.80;5.80;;;;;;;12.10;77.38;100441.04;130100;1269;114723;-62
2023/05/24 06:21:45;;;;;;;12.70;4.40;;;;;;;12.22;77.15;100446.14;130134;1252;115324;-62
2023/05/24 06:24:48;;;;;;;11.10;4.70;;;;;;;12.33;76.98;100445.23;129761;1275;115192;-62
2023/05/24 06:27:50;;;;;;;14.00;4.40;;;;;;;12.44;76.69;100445.68;130027;1256;115313;-62
2023/05/24 06:30:53;;;;;;;12.00;4.50;;;;;;;12.59;76.63;100449.70;130076;1253;114695;-63
2023/05/24 06:33:55;;;;;;;17.50;5.00;;;;;;;12.72;76.55;100452.90;130116;1253;114729;-62
2023/05/24 06:36:58;;;;;;;12.40;4.70;;;;;;;12.87;76.29;100457.08;130160;1275;114689;-63
2023/05/24 06:40:01;;;;;;;17.50;4.60;;;;;;;13.01;76.16;100465.46;130076;1258;114737;-62
2023/05/24 06:43:03;;;;;;;15.10;4.90;;;;;;;13.14;75.99;100469.72;130173;1253;115241;-62
2023/05/24 06:46:06;;;;;;;12.80;3.90;;;;;;;13.25;75.53;100473.97;130294;1253;114719;-62
2023/05/24 06:49:08;;;;;;;21.10;5.40;;;;;;;13.28;75.31;100481.13;130311;1257;114738;-62
2023/05/24 06:52:10;;;;;;;19.90;4.50;;;;;;;13.31;74.96;100490.48;130181;1258;114970;-62
2023/05/24 06:55:13;;;;;;;16.10;4.80;;;;;;;13.27;74.27;100496.45;129991;1272;114731;-62
2023/05/24 06:58:16;;;;;;;16.70;4.30;;;;;;;13.21;73.97;100495.68;130053;1253;114725;-62
2023/05/24 07:01:18;;;;;;;11.90;4.10;;;;;;;13.18;74.09;100500.67;130488;1259;127707;-62
2023/05/24 07:04:20;;;;;;;14.20;4.20;;;;;;;13.18;73.85;100496.21;130100;1256;114685;-62
2023/05/24 07:07:23;;;;;;;19.10;4.60;;;;;;;13.20;73.89;100496.96;130146;1266;114771;-63
2023/05/24 07:10:26;;;;;;;12.30;4.60;;;;;;;13.33;73.91;100499.65;130194;1255;115171;-62
2023/05/24 07:13:28;;;;;;;17.40;4.90;;;;;;;13.46;73.59;100498.55;130045;1257;114840;-62
2023/05/24 07:16:30;;;;;;;15.10;4.20;;;;;;;13.64;73.48;100498.64;129996;1252;114785;-63
2023/05/24 07:19:34;;;;;;;15.20;4.30;;;;;;;13.86;73.23;100497.48;130178;1253;114788;-62
2023/05/24 07:22:37;;;;;;;18.60;5.00;;;;;;;14.13;73.36;100500.70;130204;1257;115161;-63
2023/05/24 07:25:39;;;;;;;16.60;4.80;;;;;;;14.43;73.23;100501.36;130127;1253;114744;-63
2023/05/24 07:28:41;;;;;;;19.70;5.70;;;;;;;14.71;73.11;100507.35;130092;1256;114763;-62
2023/05/24 07:31:44;;;;;;;11.20;4.80;;;;;;;14.95;72.21;100506.79;130165;1251;114769;-63
2023/05/24 07:34:46;;;;;;;14.80;4.10;;;;;;;15.14;71.82;100512.39;130037;1255;114764;-62
2023/05/24 07:37:48;;;;;;;10.50;5.10;;;;;;;15.33;71.47;100516.56;130213;1258;114729;-62
2023/05/24 07:40:51;;;;;;;12.20;3.70;;;;;;;15.60;71.56;100519.30;129885;1275;126600;-62
2023/05/24 07:43:54;;;;;;;13.80;4.30;;;;;;;15.81;70.49;100524.31;130156;1258;114777;-62
2023/05/24 07:46:56;;;;;;;10.90;4.50;;;;;;;15.93;69.80;100524.44;130203;1257;115392;-62
2023/05/24 07:49:59;;;;;;;9.00;4.40;;;;;;;15.91;69.00;100529.98;130117;1254;114754;-62
2023/05/24 07:53:04;;;;;;;15.50;5.50;;;;;;;15.92;69.48;100529.54;130204;1257;114684;-65
2023/05/24 07:56:06;;;;;;;15.70;5.70;;;;;;;15.95;68.76;100530.79;130327;1273;114916;-62
2023/05/24 07:59:09;;;;;;;14.20;4.50;;;;;;;16.00;68.94;100536.41;130281;1251;114761;-64
2023/05/24 08:02:12;;;;;;;19.60;6.10;;;;;;;16.17;69.11;100533.44;130170;1256;114694;-62
2023/05/24 08:05:16;;;;;;;14.60;4.70;;;;;;;16.34;68.76;100534.05;130220;1253;115085;-63
2023/05/24 08:08:19;;;;;;;15.70;5.00;;;;;;;16.44;68.27;100532.46;130244;1257;115116;-63
2023/05/24 08:11:22;;;;;;;17.60;5.60;;;;;;;16.46;67.76;100537.92;130125;1257;114701;-63
2023/05/24 08:14:24;;;;;;;20.50;5.40;;;;;;;16.41;67.02;100540.63;130176;1256;114696;-63
2023/05/24 08:17:27;;;;;;;17.60;4.60;;;;;;;16.33;66.61;100542.58;130256;1256;115308;-64
2023/05/24 08:20:29;;;;;;;14.20;5.40;;;;;;;16.28;66.76;100544.62;130020;1259;115204;-63
2023/05/24 08:23:33;;;;;;;14.50;5.70;;;;;;;16.27;66.73;100542.31;130229;1257;114639;-63
2023/05/24 08:26:35;;;;;;;16.10;5.90;;;;;;;16.32;66.77;100549.04;130003;1269;114732;-63
2023/05/24 08:29:38;;;;;;;15.20;5.30;;;;;;;16.40;66.82;100544.45;130138;1268;114686;-63
2023/05/24 08:32:40;;;;;;;12.90;5.30;;;;;;;16.55;66.63;100547.59;130017;1253;114744;-63
2023/05/24 08:35:43;;;;;;;16.50;5.80;;;;;;;16.69;66.35;100547.66;130385;1257;114759;-63
2023/05/24 08:38:46;;;;;;;12.50;5.20;;;;;;;16.83;65.80;100548.46;129851;1275;114851;-63
2023/05/24 08:41:50;;;;;;;18.30;5.50;;;;;;;16.96;65.69;100546.32;129983;1258;114782;-63
2023/05/24 08:44:58;;;;;;;17.90;6.50;;;;;;;17.12;65.25;100551.12;130111;1257;114684;-63
2023/05/24 08:48:00;;;;;;;15.40;5.10;;;;;;;17.22;64.83;100553.48;130021;1256;115141;-64
2023/05/24 08:51:04;;;;;;;15.20;5.40;;;;;;;17.47;64.95;100553.23;130087;1253;115373;-63
2023/05/24 08:54:06;;;;;;;17.70;6.20;;;;;;;17.83;64.49;100553.06;130100;1253;114837;-63
2023/05/24 08:57:10;;;;;;;13.00;4.70;;;;;;;18.19;64.42;100556.68;130023;1253;114771;-63
2023/05/24 09:00:14;;;;;;;13.40;4.90;;;;;;;18.45;62.92;100563.52;130109;1259;114762;-62
2023/05/24 09:03:16;;;;;;;11.40;4.40;;;;;;;18.50;62.26;100559.33;130092;1256;114786;-64
2023/05/24 09:06:19;;;;;;;10.40;5.00;;;;;;;18.65;61.84;100557.63;130036;1253;114768;-63
2023/05/24 09:09:24;;;;;;;13.80;4.90;;;;;;;18.83;61.84;100560.73;130045;1256;115167;-65
2023/05/24 09:12:31;;;;;;;11.70;4.70;;;;;;;19.00;61.47;100564.65;130063;1252;114681;-64
2023/05/24 09:15:34;;;;;;;11.60;4.50;;;;;;;19.21;61.05;100568.02;130046;1261;114707;-62
2023/05/24 09:18:37;;;;;;;10.70;4.80;;;;;;;19.41;60.41;100570.17;130055;1253;114919;-62
2023/05/24 09:21:40;;;;;;;13.20;5.40;;;;;;;19.63;59.68;100572.73;130061;1252;115386;-62
2023/05/24 09:24:43;;;;;;;12.50;5.60;;;;;;;19.86;59.69;100574.48;130212;1256;115055;-62
2023/05/24 09:27:50;;;;;;;11.20;5.10;;;;;;;20.11;58.77;100577.60;130331;1256;114765;-61
2023/05/24 09:31:03;;;;;;;13.50;4.50;;;;;;;20.16;58.16;100581.53;130014;1259;114779;-62
2023/05/24 09:34:10;;;;;;;12.00;3.90;;;;;;;20.19;57.54;100585.86;129909;1275;114870;-62
2023/05/24 09:37:17;;;;;;;15.60;5.00;;;;;;;20.24;57.05;100585.73;129939;1275;126964;-62
2023/05/24 09:40:20;;;;;;;12.10;4.70;;;;;;;20.23;56.45;100583.70;130181;1253;115244;-63
2023/05/24 09:43:24;;;;;;;11.20;4.50;;;;;;;20.24;56.46;100583.40;129932;1260;114888;-63
2023/05/24 09:46:28;;;;;;;9.90;4.70;;;;;;;20.31;56.45;100582.45;130158;1275;114775;-63
2023/05/24 09:49:30;;;;;;;13.80;4.40;;;;;;;20.44;56.18;100581.09;130198;1275;115211;-62
2023/05/24 09:52:37;;;;;;;11.90;5.00;;;;;;;20.56;55.78;100574.30;130213;1275;114720;-62
2023/05/24 09:55:39;;;;;;;14.70;5.40;;;;;;;20.78;55.80;100575.89;130268;1272;115228;-63
2023/05/24 09:58:44;;;;;;;13.40;4.90;;;;;;;21.03;55.53;100572.73;130169;1275;115095;-63
2023/05/24 10:01:52;;;;;;;14.50;5.60;;;;;;;21.25;54.83;100575.73;130048;1259;114886;-63
2023/05/24 10:05:01;;;;;;;13.70;5.00;;;;;;;21.29;53.87;100583.55;130102;1275;114695;-63
2023/05/24 10:08:04;;;;;;;9.80;4.60;;;;;;;21.14;53.38;100585.80;130270;1264;127823;-63
2023/05/24 10:11:08;;;;;;;13.90;5.20;;;;;;;20.96;53.20;100590.95;130192;1256;114687;-62
2023/05/24 10:14:11;;;;;;;13.70;4.90;;;;;;;20.94;53.21;100590.08;130233;1257;114726;-64
2023/05/24 10:17:13;;;;;;;12.30;4.90;;;;;;;21.03;53.34;100592.03;130225;1256;115176;-63
2023/05/24 10:20:19;;;;;;;9.50;4.30;;;;;;;21.02;52.89;100592.86;130254;1275;114694;-63
2023/05/24 10:23:22;;;;;;;11.30;4.30;;;;;;;20.92;52.76;100589.52;130064;1275;128207;-63
2023/05/24 10:26:25;;;;;;;10.20;3.90;;;;;;;20.80;52.72;100596.80;130099;1259;115274;-64
2023/05/24 10:30:05;;;;;;;8.00;3.70;;;;;;;20.70;52.53;100597.58;129890;1261;114751;-63
2023/05/24 10:33:11;;;;;;;10.10;4.70;;;;;;;20.54;51.93;100596.98;130192;1259;114732;-62
2023/05/24 10:36:14;;;;;;;10.40;4.30;;;;;;;20.40;51.65;100595.08;129824;1275;115418;-63
2023/05/24 10:39:20;;;;;;;8.40;3.90;;;;;;;20.34;52.01;100596.19;130055;1259;127158;-63
2023/05/24 10:42:23;;;;;;;10.90;4.10;;;;;;;20.41;52.03;100597.77;129786;1275;115228;-62
2023/05/24 10:45:31;;;;;;;13.10;4.30;;;;;;;20.41;52.02;100599.77;129965;1275;114851;-63
2023/05/24 10:48:35;;;;;;;15.70;4.60;;;;;;;20.48;52.19;100606.73;130095;1256;114709;-64
2023/05/24 10:51:38;;;;;;;13.50;4.50;;;;;;;20.48;51.90;100606.94;129907;1260;115139;-63
2023/05/24 10:55:03;;;;;;;11.40;4.20;;;;;;;20.44;51.68;100609.23;130032;1275;114704;-62
2023/05/24 10:58:06;;;;;;;11.00;3.80;;;;;;;20.37;51.37;100604.05;129889;1260;114660;-63
2023/05/24 11:01:29;;;;;;;13.20;4.40;;;;;;;20.39;51.33;100605.93;130064;1259;114734;-63
2023/05/24 11:04:33;;;;;;;8.80;4.00;;;;;;;20.35;51.20;100604.64;129866;1256;114900;-64
2023/05/24 11:07:41;;;;;;;12.30;5.10;;;;;;;20.34;51.30;100605.57;129920;1274;115110;-63
2023/05/24 11:10:45;;;;;;;15.40;4.70;;;;;;;20.31;51.19;100603.87;129982;1256;127614;-63
2023/05/24 11:13:47;;;;;;;13.50;4.60;;;;;;;20.24;51.13;100604.79;130095;1267;115183;-62
2023/05/24 11:16:52;;;;;;;15.50;4.90;;;;;;;20.24;51.28;100608.05;130087;1255;115213;-63
2023/05/24 11:19:55;;;;;;;12.60;4.90;;;;;;;20.25;51.42;100605.81;129844;1269;115103;-63
2023/05/24 11:22:58;;;;;;;13.50;4.80;;;;;;;20.23;51.08;100607.11;130053;1275;114737;-63
2023/05/24 11:26:02;;;;;;;15.80;5.30;;;;;;;20.18;50.96;100612.75;130049;1274;114798;-63
2023/05/24 11:29:06;;;;;;;9.90;4.50;;;;;;;20.15;50.88;100616.12;129877;1275;114826;-63
2023/05/24 11:32:08;;;;;;;13.80;4.20;;;;;;;20.21;51.33;100617.41;130079;1275;114716;-63
2023/05/24 11:35:11;;;;;;;13.50;4.10;;;;;;;20.23;50.89;100614.32;130092;1257;114689;-63
2023/05/24 11:38:14;;;;;;;16.10;4.60;;;;;;;20.33;51.06;100615.89;130079;1275;114796;-63
2023/05/24 11:41:16;;;;;;;14.90;4.30;;;;;;;20.39;51.01;100615.02;130218;1267;115001;-63
2023/05/24 11:44:19;;;;;;;12.30;5.10;;;;;;;20.43;50.98;100615.57;130191;1256;114792;-63
2023/05/24 11:47:22;;;;;;;13.90;4.60;;;;;;;20.44;50.63;100621.05;129929;1260;115246;-63
2023/05/24 11:50:25;;;;;;;9.80;4.00;;;;;;;20.42;50.54;100622.48;130148;1256;114712;-63
2023/05/24 11:53:27;;;;;;;10.80;4.20;;;;;;;20.46;50.77;100621.66;129968;1275;114710;-63
2023/05/24 11:56:30;;;;;;;12.50;3.80;;;;;;;20.58;50.52;100623.16;130061;1275;115328;-64
2023/05/24 11:59:36;;;;;;;10.70;4.00;;;;;;;20.63;50.30;100618.48;130182;1255;114752;-63
2023/05/24 12:02:38;;;;;;;14.70;4.80;;;;;;;20.63;50.11;100625.40;129714;1275;128535;-63
2023/05/24 12:05:41;;;;;;;11.20;4.40;;;;;;;20.60;49.59;100621.10;130067;1275;115199;-63
2023/05/24 12:08:45;;;;;;;10.40;4.70;;;;;;;20.57;49.41;100620.89;130074;1256;115184;-62
2023/05/24 12:11:49;;;;;;;14.20;3.90;;;;;;;20.58;49.72;100620.98;130126;1256;114702;-62
2023/05/24 12:14:54;;;;;;;7.70;3.40;;;;;;;20.59;49.57;100620.50;130066;1271;114718;-63
2023/05/24 12:17:57;;;;;;;11.00;4.20;;;;;;;20.58;49.41;100614.82;129760;1253;128801;-63
2023/05/24 12:21:00;;;;;;;12.20;3.90;;;;;;;20.63;49.64;100613.05;130041;1259;114958;-63
2023/05/24 12:24:13;;;;;;;10.90;4.70;;;;;;;20.72;49.51;100611.06;130061;1275;114690;-63
2023/05/24 12:27:15;;;;;;;9.80;4.00;;;;;;;20.80;49.61;100610.04;130224;1256;115355;-63
2023/05/24 12:30:25;;;;;;;12.20;3.90;;;;;;;20.82;49.35;100609.31;130091;1275;114739;-63
2023/05/24 12:33:27;;;;;;;17.70;5.30;;;;;;;20.82;49.22;100611.81;129945;1269;129048;-63
2023/05/24 12:36:29;;;;;;;11.60;3.90;;;;;;;20.82;49.27;100615.48;130116;1258;114810;-62
2023/05/24 12:39:33;;;;;;;10.40;3.90;;;;;;;20.77;48.64;100616.95;130239;1258;114796;-62
2023/05/24 12:42:36;;;;;;;10.30;4.40;;;;;;;20.66;48.76;100614.79;129856;1259;114830;-63
2023/05/24 12:45:38;;;;;;;8.80;3.20;;;;;;;20.61;48.96;100616.38;130008;1269;114683;-63
2023/05/24 12:48:40;;;;;;;7.60;3.60;;;;;;;20.60;48.86;100618.23;130179;1275;114729;-63
2023/05/24 12:51:43;;;;;;;9.40;4.10;;;;;;;20.56;49.10;100620.08;130164;1254;114776;-62
2023/05/24 12:54:45;;;;;;;8.90;3.70;;;;;;;20.56;49.14;100620.77;130051;1256;115497;-63
2023/05/24 12:57:52;;;;;;;9.90;3.70;;;;;;;20.49;48.95;100624.05;130100;1275;114731;-63
2023/05/24 13:00:54;;;;;;;10.40;4.20;;;;;;;20.42;48.63;100625.57;130106;1275;114731;-63
2023/05/24 13:03:57;;;;;;;16.50;3.80;;;;;;;20.33;48.64;100622.02;130167;1255;114702;-63
2023/05/24 13:07:01;;;;;;;8.70;4.00;;;;;;;20.25;48.48;100623.95;130178;1257;114966;-61
2023/05/24 13:10:05;;;;;;;11.20;3.60;;;;;;;20.27;49.01;100619.10;130187;1275;114804;-63
2023/05/24 13:13:07;;;;;;;9.30;4.30;;;;;;;20.30;48.87;100615.32;129880;1275;129145;-63
2023/05/24 13:16:09;;;;;;;8.90;3.10;;;;;;;20.35;48.59;100616.59;130169;1265;114714;-64
2023/05/24 13:19:11;;;;;;;13.00;4.50;;;;;;;20.34;48.62;100615.23;130067;1275;114826;-63
2023/05/24 13:22:14;;;;;;;13.00;4.10;;;;;;;20.41;48.94;100614.80;130367;1256;115217;-63
2023/05/24 13:25:17;;;;;;;9.60;4.20;;;;;;;20.53;49.25;100618.14;130178;1272;114731;-63
2023/05/24 13:28:19;;;;;;;11.10;4.10;;;;;;;20.65;48.65;100621.83;130098;1275;115330;-63
2023/05/24 13:31:21;;;;;;;15.40;3.90;;;;;;;20.55;48.06;100619.39;130262;1275;114777;-63
2023/05/24 13:34:26;;;;;;;8.80;3.40;;;;;;;20.50;48.62;100617.99;130015;1265;128518;-62
2023/05/24 13:37:28;;;;;;;10.70;3.60;;;;;;;20.52;48.49;100622.58;129958;1259;115218;-63
2023/05/24 13:40:31;;;;;;;9.80;3.90;;;;;;;20.47;47.91;100622.66;130130;1259;114826;-63
2023/05/24 13:43:33;;;;;;;11.50;3.70;;;;;;;20.37;47.96;100623.30;130112;1253;114810;-64
2023/05/24 13:46:35;;;;;;;7.60;3.00;;;;;;;20.29;48.15;100627.62;130180;1275;114788;-63
2023/05/24 13:49:37;;;;;;;12.50;3.90;;;;;;;20.18;48.33;100627.25;130154;1272;115135;-62